Lentokenttä METAR

 

EFHK - Helsinki/Vantaa
Etäisyys sääasemasta: IKO 36km
Päivitetty: 23/02/2018 23:50
Selkeää
Selkeää
 Tuulen suunta P
Tuuli: P 3 m/s
Lämpötila: -15°C
Hyytävyys: -22°C
Kastepiste: -17°C
Kosteus: 85%
Ilmanpaine: 1033 hPa
Yhteenveto: Selkeää
Näkyvyys: Suurempi kuin 10 km
2018/02/23 21:50 EFHK 232150Z 35006KT CAVOK M15/M17 Q1033 NOSIG
EETN - Tallinn, Estonia
Etäisyys sääasemasta: EKA 97km
Päivitetty: 24/02/2018 00:20
Heavy snow, Sadekuuroja, Pilvistä
Heavy snow, Sadekuuroja, Pilvistä
 Tuulen suunta I
Tuuli: I 3 m/s
Lämpötila: -10°C
Hyytävyys: -15°C
Kastepiste: -11°C
Kosteus: 92%
Ilmanpaine: 1032 hPa
Yhteenveto: Heavy snow, Sadekuuroja
Pilvisyys: Pilvistä
Näkyvyys: 1 km
Pilviraja: Pilvistä 396 m
2018/02/23 22:20 EETN 232220Z 08005KT 1200 R08/P2000N +SHSN VV013 M10/M11 Q1032 R08/490393
 
EFTU - Turku
Etäisyys sääasemasta: LLU 119km
Päivitetty: 23/02/2018 23:50
Selkeää
Selkeää
 Tuulen suunta KO
Tuuli: KO 2 m/s
Lämpötila: -13°C
Hyytävyys: -18°C
Kastepiste: -15°C
Kosteus: 85%
Ilmanpaine: 1034 hPa
Yhteenveto: Selkeää
Näkyvyys: Suurempi kuin 10 km
2018/02/23 21:50 EFTU 232150Z AUTO 05004KT CAVOK M13/M15 Q1034
EFLP - Lappeenranta
Etäisyys sääasemasta: IKO 227km
Päivitetty: 23/02/2018 23:50
Heikkoa lumisadetta, Sadekuuroja, Selkeää
Heikkoa lumisadetta, Sadekuuroja, Selkeää
 Tuulen suunta P
Tuuli: P 3 m/s
Lämpötila: -16°C
Hyytävyys: -23°C
Kastepiste: -18°C
Kosteus: 85%
Ilmanpaine: 1032 hPa
Yhteenveto: Heikkoa lumisadetta, Sadekuuroja
Pilvisyys: Selkeää
Näkyvyys: 10 km
2018/02/23 21:50 EFLP 232150Z AUTO 35006KT 9999 -SHSN SKC M16/M18 Q1032
 
EFJY - Jyvaskylä
Etäisyys sääasemasta: PKO 253km
Päivitetty: 23/02/2018 23:50
Heikkoa lumisadetta, Sadekuuroja, Selkeää
Heikkoa lumisadetta, Sadekuuroja, Selkeää
 Tuulen suunta PLU
Tuuli: PLU 3 m/s
Lämpötila: -18°C
Hyytävyys: -25°C
Kastepiste: -20°C
Kosteus: 84%
Ilmanpaine: 1034 hPa
Yhteenveto: Heikkoa lumisadetta, Sadekuuroja
Pilvisyys: Selkeää
Näkyvyys: 10 km
2018/02/23 21:50 EFJY 232150Z AUTO 34006KT 9999 -SHSN NCD M18/M20 Q1034
EFSA - Savonlinna
Etäisyys sääasemasta: KO 313km
Päivitetty: 23/02/2018 23:50
Selkeää
Selkeää
 Tuulen suunta P
Tuuli: P 2 m/s
Lämpötila: -17°C
Hyytävyys: -23°C
Kastepiste: -19°C
Kosteus: 85%
Ilmanpaine: 1033 hPa
Yhteenveto: Selkeää
Näkyvyys: Suurempi kuin 10 km
2018/02/23 21:50 EFSA 232150Z AUTO 36004KT 330V040 CAVOK M17/M19 Q1033
 
ESSA - Stockholm/Arlanda, Sweden
Etäisyys sääasemasta: L 363km
Päivitetty: 23/02/2018 23:50
Heikkoa lumisadetta, Melko pilvistä
Heikkoa lumisadetta, Melko pilvistä
 Tuulen suunta P
Tuuli: P 3 m/s
Lämpötila: -10°C
Hyytävyys: -16°C
Kastepiste: -12°C
Kosteus: 85%
Ilmanpaine: 1034 hPa
Yhteenveto: Heikkoa lumisadetta
Pilvisyys: Melko pilvistä
Näkyvyys: 10 km
Pilviraja: Melko selkeää 152 m
Melko pilvistä 305 m
Melko pilvistä 853 m
2018/02/23 21:50 ESSA 232150Z 36006KT 9999 -SN FEW005 BKN010 BKN028 M10/M12 Q1034 R01L/610172 R01R/610164 R08/////// NOSIG
ESGG - Göteborg, Sweden
Etäisyys sääasemasta: LO 900km
Päivitetty: 23/02/2018 23:50
Pilvistä
Pilvistä
 Tuulen suunta IKO
Tuuli: IKO 4 m/s
Lämpötila: -3°C
Hyytävyys: -7°C
Kastepiste: -5°C
Kosteus: 86%
Ilmanpaine: 1031 hPa
Pilvisyys: Pilvistä
Näkyvyys: 10 km
Pilviraja: Pilvistä 396 m
2018/02/23 21:50 ESGG 232150Z 07007KT 9999 OVC013 M03/M05 Q1031 R03/19//95
 
ENGM - Oslo, Norway
Etäisyys sääasemasta: L 950km
Päivitetty: 23/02/2018 23:50
Melko pilvistä
Melko pilvistä
 Tuulen suunta EKA
Tuuli: EKA 2 m/s
Lämpötila: -4°C
Kastepiste: -5°C
Kosteus: 93%
Ilmanpaine: 1033 hPa
Pilvisyys: Melko pilvistä
Näkyvyys: 10 km
Pilviraja: Melko selkeää 244 m
Melko pilvistä 305 m
2018/02/23 21:50 ENGM 232150Z 15003KT 110V260 9999 FEW008 BKN010 M04/M05 Q1033 TEMPO BKN008